createdAt,value
2022-12-08T00:01:30.376Z,7.43
2022-12-08T00:03:59.507Z,6.88
2022-12-08T00:06:47.567Z,6.93
2022-12-08T00:09:23.118Z,6.55
2022-12-08T00:11:58.968Z,7.25
2022-12-08T00:14:29.395Z,6.47
2022-12-08T00:16:56.788Z,6.70
2022-12-08T00:19:24.227Z,6.78
2022-12-08T00:21:51.805Z,6.40
2022-12-08T00:24:19.802Z,6.50
2022-12-08T00:26:47.069Z,6.30
2022-12-08T00:29:17.372Z,6.45
2022-12-08T00:31:45.181Z,6.90
2022-12-08T00:34:13.958Z,6.50
2022-12-08T00:36:41.746Z,6.28
2022-12-08T00:39:12.722Z,6.70
2022-12-08T00:41:58.669Z,7.10
2022-12-08T00:44:25.996Z,6.82
2022-12-08T00:46:53.113Z,6.07
2022-12-08T00:49:20.595Z,6.18
2022-12-08T00:51:47.749Z,6.60
2022-12-08T00:54:14.985Z,6.55
2022-12-08T00:56:42.135Z,6.30
2022-12-08T00:59:09.341Z,6.38
2022-12-08T01:01:36.684Z,7.18
2022-12-08T01:04:08.503Z,6.45
2022-12-08T01:06:35.859Z,6.88
2022-12-08T01:09:06.573Z,6.03
2022-12-08T01:11:33.968Z,6.35
2022-12-08T01:14:01.162Z,6.78
2022-12-08T01:16:30.883Z,6.22
2022-12-08T01:18:58.901Z,6.50
2022-12-08T01:21:26.272Z,6.18
2022-12-08T01:23:54.617Z,6.90
2022-12-08T01:26:21.819Z,6.05
2022-12-08T01:28:49.357Z,7.30
2022-12-08T01:31:19.521Z,6.68
2022-12-08T01:33:47.065Z,6.78
2022-12-08T01:36:33.486Z,6.07
2022-12-08T01:39:01.386Z,6.38
2022-12-08T01:41:31.674Z,7.10
2022-12-08T01:44:08.781Z,6.35
2022-12-08T01:46:38.672Z,6.80
2022-12-08T01:49:10.891Z,6.70
2022-12-08T01:51:59.351Z,6.40
2022-12-08T01:54:29.856Z,7.82
2022-12-08T01:57:09.737Z,6.68
2022-12-08T01:59:40.176Z,7.07
2022-12-08T02:02:09.137Z,6.93
2022-12-08T02:04:36.311Z,6.75
2022-12-08T02:07:07.757Z,7.18
2022-12-08T02:09:36.837Z,6.82
2022-12-08T02:12:04.411Z,6.70
2022-12-08T02:14:32.274Z,7.07
2022-12-08T02:17:23.566Z,6.57
2022-12-08T02:20:32.841Z,7.05
2022-12-08T02:23:08.039Z,6.53
2022-12-08T02:26:15.472Z,6.95
2022-12-08T02:28:48.366Z,7.43
2022-12-08T02:31:36.019Z,7.43
2022-12-08T02:34:26.750Z,7.65
2022-12-08T02:37:18.615Z,6.22
2022-12-08T02:40:11.405Z,6.88
2022-12-08T02:42:48.861Z,6.63
2022-12-08T02:45:46.007Z,7.00
2022-12-08T02:48:13.149Z,7.43
2022-12-08T02:50:40.311Z,7.75
2022-12-08T02:56:27.059Z,7.93
2022-12-08T02:59:27.706Z,7.13
2022-12-08T03:02:19.028Z,6.93
2022-12-08T03:05:11.409Z,7.80
2022-12-08T03:07:48.205Z,7.47
2022-12-08T03:10:33.530Z,7.03
2022-12-08T03:13:16.088Z,7.10
2022-12-08T03:15:45.519Z,6.93
2022-12-08T03:18:14.923Z,6.88
2022-12-08T03:20:42.092Z,8.05
2022-12-08T03:23:11.072Z,7.55
2022-12-08T03:25:43.287Z,8.23
2022-12-08T03:28:10.476Z,8.38
2022-12-08T03:30:39.460Z,7.93
2022-12-08T03:33:31.650Z,7.18
2022-12-08T03:35:59.815Z,6.75
2022-12-08T03:38:26.930Z,8.35
2022-12-08T03:41:12.922Z,8.02
2022-12-08T03:43:40.079Z,7.88
2022-12-08T03:46:07.277Z,7.50
2022-12-08T03:48:34.493Z,7.80
2022-12-08T03:51:01.634Z,7.38
2022-12-08T03:53:28.785Z,7.78
2022-12-08T03:55:56.055Z,7.10
2022-12-08T03:58:23.199Z,7.15
2022-12-08T04:00:50.335Z,7.45
2022-12-08T04:03:17.515Z,8.05
2022-12-08T04:05:44.754Z,8.55
2022-12-08T04:08:12.081Z,7.43
2022-12-08T04:10:39.390Z,7.60
2022-12-08T04:13:06.504Z,7.30
2022-12-08T04:15:33.656Z,8.02
2022-12-08T04:18:00.814Z,7.45
2022-12-08T04:20:28.005Z,7.40
2022-12-08T04:22:55.098Z,8.05
2022-12-08T04:25:22.371Z,8.15
2022-12-08T04:27:50.425Z,7.60
2022-12-08T04:30:17.621Z,8.05
2022-12-08T04:32:47.562Z,7.68
2022-12-08T04:35:14.874Z,7.90
2022-12-08T04:37:43.227Z,7.57
2022-12-08T04:40:12.098Z,8.40
2022-12-08T04:42:39.352Z,9.90
2022-12-08T04:45:07.269Z,9.75
2022-12-08T04:47:34.572Z,9.45
2022-12-08T04:50:02.077Z,9.70
2022-12-08T04:52:29.739Z,10.63
2022-12-08T04:54:56.901Z,10.38
2022-12-08T04:57:24.276Z,10.35
2022-12-08T04:59:51.405Z,9.77
2022-12-08T05:02:18.660Z,12.35
2022-12-08T05:04:45.890Z,22.17
2022-12-08T05:07:13.057Z,34.83
2022-12-08T05:09:40.173Z,27.98
2022-12-08T05:12:07.552Z,29.50
2022-12-08T05:14:34.728Z,21.65
2022-12-08T05:17:07.823Z,27.20
2022-12-08T05:19:36.678Z,25.33
2022-12-08T05:24:48.300Z,16.60
2022-12-08T05:27:15.760Z,16.20
2022-12-08T05:29:42.943Z,16.40
2022-12-08T05:32:10.167Z,14.98
2022-12-08T05:34:37.310Z,14.93
2022-12-08T05:37:04.627Z,15.02
2022-12-08T05:39:31.802Z,16.50
2022-12-08T05:41:59.615Z,13.48
2022-12-08T05:44:26.982Z,13.75
2022-12-08T05:46:54.193Z,12.27
2022-12-08T05:49:21.329Z,12.80
2022-12-08T05:51:48.494Z,13.77
2022-12-08T05:54:15.643Z,14.10
2022-12-08T05:56:42.775Z,12.98
2022-12-08T05:59:10.111Z,14.13
2022-12-08T06:01:37.379Z,14.75
2022-12-08T06:04:05.055Z,13.38
2022-12-08T06:06:32.288Z,12.50
2022-12-08T06:08:59.476Z,12.05
2022-12-08T06:11:28.924Z,10.55
2022-12-08T06:13:56.810Z,11.35
2022-12-08T06:16:26.207Z,10.70
2022-12-08T06:18:53.666Z,11.73
2022-12-08T06:21:20.940Z,10.77
2022-12-08T06:23:52.660Z,12.30
2022-12-08T06:26:19.914Z,11.30
2022-12-08T06:28:47.048Z,11.30
2022-12-08T06:31:16.475Z,10.90
2022-12-08T06:33:43.800Z,10.98
2022-12-08T06:36:12.713Z,13.73
2022-12-08T06:38:43.307Z,12.13
2022-12-08T06:41:11.325Z,12.90
2022-12-08T06:43:38.739Z,12.95
2022-12-08T06:46:07.788Z,12.40
2022-12-08T06:48:35.247Z,11.73
2022-12-08T06:51:15.659Z,10.30
2022-12-08T06:53:42.933Z,13.60
2022-12-08T06:56:10.354Z,11.07
2022-12-08T06:58:37.556Z,12.55
2022-12-08T07:01:09.919Z,10.85
2022-12-08T07:03:37.880Z,12.43
2022-12-08T07:06:05.489Z,12.20
2022-12-08T07:08:33.928Z,10.82
2022-12-08T07:11:18.007Z,11.57
2022-12-08T07:13:48.362Z,12.73
2022-12-08T07:16:15.661Z,11.73
2022-12-08T07:18:44.202Z,12.82
2022-12-08T07:21:13.109Z,12.45
2022-12-08T07:23:40.327Z,13.30
2022-12-08T07:26:08.742Z,13.52
2022-12-08T07:28:37.877Z,12.73
2022-12-08T07:31:05.783Z,13.10
2022-12-08T07:33:33.888Z,14.30
2022-12-08T07:36:04.057Z,13.27
2022-12-08T07:38:31.434Z,13.10
2022-12-08T07:40:58.664Z,14.07
2022-12-08T07:43:25.843Z,13.95
2022-12-08T07:45:53.113Z,14.60
2022-12-08T07:48:20.409Z,14.82
2022-12-08T07:50:47.673Z,14.20
2022-12-08T07:53:14.989Z,14.85
2022-12-08T07:55:42.824Z,15.23
2022-12-08T07:58:10.799Z,15.02
2022-12-08T08:00:38.046Z,15.15
2022-12-08T08:03:06.227Z,15.85
2022-12-08T08:05:33.542Z,13.50
2022-12-08T08:08:01.722Z,15.95
2022-12-08T08:10:28.935Z,14.75
2022-12-08T08:12:59.595Z,14.32
2022-12-08T08:15:27.539Z,16.30
2022-12-08T08:17:54.719Z,14.63
2022-12-08T08:20:21.911Z,14.43
2022-12-08T08:22:50.635Z,13.82
2022-12-08T08:25:18.450Z,12.48
2022-12-08T08:27:46.625Z,12.88
2022-12-08T08:30:19.706Z,11.60
2022-12-08T08:32:52.392Z,12.63
2022-12-08T08:35:19.615Z,13.25
2022-12-08T08:37:49.174Z,12.95
2022-12-08T08:40:17.925Z,12.93
2022-12-08T08:42:45.113Z,11.23
2022-12-08T08:45:12.359Z,11.68
2022-12-08T08:47:39.559Z,12.90
2022-12-08T08:50:10.748Z,12.70
2022-12-08T08:52:37.901Z,12.00
2022-12-08T08:55:05.601Z,12.02
2022-12-08T08:57:32.859Z,12.18
2022-12-08T09:00:00.032Z,11.52
2022-12-08T09:02:27.302Z,9.82
2022-12-08T09:04:54.558Z,10.20
2022-12-08T09:07:21.787Z,9.93
2022-12-08T09:09:48.942Z,11.48
2022-12-08T09:12:16.046Z,10.93
2022-12-08T09:14:43.212Z,10.05
2022-12-08T09:17:10.372Z,12.30
2022-12-08T09:19:37.607Z,11.70
2022-12-08T09:22:05.155Z,11.65
2022-12-08T09:24:36.022Z,11.38
2022-12-08T09:27:03.190Z,11.65
2022-12-08T09:29:35.653Z,11.18
2022-12-08T09:32:03.649Z,11.27
2022-12-08T09:34:31.840Z,10.98
2022-12-08T09:36:59.875Z,10.35
2022-12-08T09:39:27.090Z,9.48
2022-12-08T09:42:06.776Z,8.73
2022-12-08T09:45:12.109Z,10.18
2022-12-08T09:50:56.945Z,9.68
2022-12-08T09:53:36.802Z,9.45
2022-12-08T09:56:29.969Z,10.60
2022-12-08T09:59:04.338Z,9.18
2022-12-08T10:04:00.516Z,10.25
2022-12-08T10:06:51.619Z,10.75
2022-12-08T10:09:29.653Z,9.32
2022-12-08T10:12:36.049Z,10.20
2022-12-08T10:15:27.304Z,9.90
2022-12-08T10:17:54.545Z,10.60
2022-12-08T10:20:24.068Z,11.02
2022-12-08T10:23:18.005Z,10.98
2022-12-08T10:25:49.867Z,12.07
2022-12-08T10:28:17.076Z,12.70
2022-12-08T10:30:45.208Z,14.38
2022-12-08T10:33:18.259Z,15.27
2022-12-08T10:35:58.396Z,14.80
2022-12-08T10:38:38.551Z,15.43
2022-12-08T10:41:11.851Z,14.27
2022-12-08T10:43:57.935Z,13.68
2022-12-08T10:46:26.712Z,13.90
2022-12-08T10:49:04.223Z,13.02
2022-12-08T10:51:35.226Z,12.73
2022-12-08T10:54:03.576Z,11.63
2022-12-08T10:56:31.150Z,13.05
2022-12-08T10:59:18.597Z,13.45
2022-12-08T11:01:48.450Z,13.48
2022-12-08T11:04:29.606Z,13.35
2022-12-08T11:06:56.924Z,12.63
2022-12-08T11:09:35.635Z,13.88
2022-12-08T11:12:13.985Z,14.20
2022-12-08T11:14:44.172Z,15.02
2022-12-08T11:17:26.813Z,14.48
2022-12-08T11:20:23.603Z,14.85
2022-12-08T11:22:55.300Z,14.75
2022-12-08T11:25:28.950Z,13.88
2022-12-08T11:28:00.670Z,16.52
2022-12-08T11:30:34.727Z,15.80
2022-12-08T11:33:16.387Z,15.57
2022-12-08T11:35:46.014Z,12.48
2022-12-08T11:38:24.083Z,10.95
2022-12-08T11:41:12.261Z,11.00
2022-12-08T11:44:13.652Z,10.30
2022-12-08T11:47:13.243Z,10.15
2022-12-08T11:52:26.975Z,9.32
2022-12-08T11:55:41.655Z,8.75
2022-12-08T11:58:39.678Z,7.80
2022-12-08T12:01:26.509Z,8.82
2022-12-08T12:04:17.282Z,8.50
2022-12-08T12:07:02.342Z,10.38
2022-12-08T12:10:18.331Z,10.02
2022-12-08T12:13:19.418Z,9.88
2022-12-08T12:16:14.368Z,9.43
2022-12-08T12:21:22.657Z,9.63
2022-12-08T12:24:36.177Z,10.05
2022-12-08T12:27:15.812Z,9.68
2022-12-08T12:29:55.990Z,9.43
2022-12-08T12:32:23.472Z,10.95
2022-12-08T12:34:56.915Z,13.77
2022-12-08T12:37:37.519Z,9.57
2022-12-08T12:40:26.051Z,10.27
2022-12-08T12:42:56.118Z,10.77
2022-12-08T12:45:34.774Z,9.98
2022-12-08T12:48:01.900Z,9.20
2022-12-08T12:50:35.279Z,9.60
2022-12-08T12:53:17.927Z,9.33
2022-12-08T12:55:58.061Z,9.57
2022-12-08T12:58:28.320Z,9.38
2022-12-08T13:01:21.602Z,9.05
2022-12-08T13:03:52.094Z,10.77
2022-12-08T13:06:44.644Z,10.40
2022-12-08T13:09:29.574Z,11.02
2022-12-08T13:11:59.771Z,10.35
2022-12-08T13:14:30.092Z,11.77
2022-12-08T13:16:59.055Z,11.68
2022-12-08T13:19:26.334Z,11.02
2022-12-08T13:21:53.607Z,11.05
2022-12-08T13:24:34.153Z,10.43
2022-12-08T13:27:04.320Z,10.45
2022-12-08T13:29:35.325Z,10.45
2022-12-08T13:32:09.657Z,14.57
2022-12-08T13:38:02.807Z,18.38
2022-12-08T13:40:34.332Z,15.05
2022-12-08T13:43:38.733Z,16.13
2022-12-08T13:47:02.752Z,19.23
2022-12-08T13:57:35.849Z,20.35
2022-12-08T14:00:17.483Z,21.02
2022-12-08T14:02:50.079Z,22.02
2022-12-08T14:05:26.297Z,21.92
2022-12-08T14:08:02.451Z,20.85
2022-12-08T14:10:31.944Z,21.20
2022-12-08T14:13:07.275Z,23.63
2022-12-08T14:15:38.322Z,21.63
2022-12-08T14:18:06.512Z,24.38
2022-12-08T14:20:51.828Z,22.80
2022-12-08T14:23:27.325Z,24.63
2022-12-08T14:25:54.903Z,23.95
2022-12-08T14:28:22.130Z,25.08
2022-12-08T14:30:49.751Z,26.00
2022-12-08T14:33:17.441Z,24.30
2022-12-08T14:35:49.686Z,26.83
2022-12-08T14:38:18.883Z,25.00
2022-12-08T14:41:04.519Z,25.02
2022-12-08T14:43:31.988Z,24.90
2022-12-08T14:46:19.435Z,27.13
2022-12-08T14:48:46.785Z,27.55
2022-12-08T14:51:20.192Z,26.52
2022-12-08T14:54:04.406Z,26.63
2022-12-08T14:56:42.583Z,24.52
2022-12-08T14:59:19.534Z,22.05
2022-12-08T15:01:47.778Z,23.63
2022-12-08T15:04:15.776Z,22.35
2022-12-08T15:07:07.616Z,23.55
2022-12-08T15:09:48.996Z,24.17
2022-12-08T15:12:26.804Z,24.08
2022-12-08T15:15:09.873Z,25.27
2022-12-08T15:17:44.687Z,29.50
2022-12-08T15:20:43.310Z,27.67
2022-12-08T15:23:27.523Z,29.58
2022-12-08T15:25:55.665Z,29.42
2022-12-08T15:28:30.133Z,32.08
2022-12-08T15:30:58.209Z,31.77
2022-12-08T15:33:27.344Z,34.75
2022-12-08T15:35:54.570Z,32.55
2022-12-08T15:38:27.145Z,34.05
2022-12-08T15:40:55.272Z,36.58
2022-12-08T15:43:22.523Z,31.27
2022-12-08T15:45:58.334Z,34.38
2022-12-08T15:48:28.789Z,35.75
2022-12-08T15:50:56.388Z,35.50
2022-12-08T15:53:23.741Z,34.90
2022-12-08T15:56:26.461Z,36.45
2022-12-08T15:58:53.504Z,35.22
2022-12-08T16:01:21.138Z,35.90
2022-12-08T16:09:36.319Z,37.42
2022-12-08T16:12:23.779Z,35.53
2022-12-08T16:17:39.600Z,35.67
2022-12-08T16:20:12.250Z,37.75
2022-12-08T16:23:07.614Z,39.42
2022-12-08T16:25:46.143Z,40.70
2022-12-08T16:28:52.128Z,42.28
2022-12-08T16:31:11.643Z,42.65
2022-12-08T16:36:09.500Z,43.60
2022-12-08T16:38:37.025Z,42.35
2022-12-08T16:41:30.438Z,49.75
2022-12-08T16:44:01.506Z,47.97
2022-12-08T16:46:29.912Z,48.80
2022-12-08T16:48:58.886Z,48.38
2022-12-08T16:51:27.909Z,47.60
2022-12-08T16:53:57.009Z,47.58
2022-12-08T16:56:30.634Z,47.85
2022-12-08T16:59:00.827Z,49.15
2022-12-08T17:01:28.112Z,50.78
2022-12-08T17:06:42.357Z,51.13
2022-12-08T17:09:09.508Z,45.88
2022-12-08T17:11:42.644Z,54.00
2022-12-08T17:14:12.602Z,51.00
2022-12-08T17:16:43.742Z,50.65
2022-12-08T17:19:12.878Z,55.03
2022-12-08T17:21:41.806Z,57.33
2022-12-08T17:24:12.962Z,55.33
2022-12-08T17:26:43.873Z,50.65
2022-12-08T17:29:11.162Z,51.50
2022-12-08T17:31:39.718Z,51.10
2022-12-08T17:34:12.799Z,53.10
2022-12-08T17:36:40.173Z,52.03
2022-12-08T17:39:11.031Z,50.55
2022-12-08T17:41:42.132Z,44.35
2022-12-08T17:44:14.000Z,47.78
2022-12-08T17:46:44.263Z,46.75
2022-12-08T17:49:22.742Z,49.85
2022-12-08T17:51:51.842Z,48.72
2022-12-08T17:54:19.764Z,53.10
2022-12-08T17:56:48.016Z,47.80
2022-12-08T17:59:18.538Z,54.13
2022-12-08T18:01:45.795Z,50.63
2022-12-08T18:04:14.013Z,61.78
2022-12-08T18:06:41.241Z,77.93
2022-12-08T18:09:08.772Z,82.93
2022-12-08T18:11:37.570Z,83.53
2022-12-08T18:14:09.831Z,72.65
2022-12-08T18:16:39.287Z,74.53
2022-12-08T18:19:09.577Z,72.43
2022-12-08T18:21:36.975Z,71.68
2022-12-08T18:24:45.184Z,62.60
2022-12-08T18:27:12.980Z,54.53
2022-12-08T18:29:40.261Z,57.58
2022-12-08T18:32:08.406Z,53.17
2022-12-08T18:34:35.780Z,60.75
2022-12-08T18:37:03.038Z,55.25
2022-12-08T18:39:32.211Z,58.88
2022-12-08T18:41:59.729Z,60.70
2022-12-08T18:44:27.100Z,60.55
2022-12-08T18:46:54.402Z,64.70
2022-12-08T18:49:21.648Z,62.85
2022-12-08T19:02:13.880Z,58.65
2022-12-08T19:29:07.843Z,54.28
2022-12-08T19:34:58.755Z,52.53
2022-12-08T19:37:31.836Z,50.53
2022-12-08T19:43:17.878Z,50.08
2022-12-08T19:45:56.145Z,48.63
2022-12-08T19:48:33.034Z,46.90
2022-12-08T19:51:47.678Z,43.63
2022-12-08T19:54:14.913Z,42.20
2022-12-08T19:56:44.509Z,39.03
2022-12-08T19:59:17.198Z,42.13
2022-12-08T20:02:02.937Z,39.67
2022-12-08T20:04:50.514Z,36.40
2022-12-08T20:07:18.775Z,32.75
2022-12-08T20:12:30.928Z,29.30
2022-12-08T20:15:15.272Z,29.52
2022-12-08T20:17:43.939Z,29.98
2022-12-08T20:20:16.971Z,28.73
2022-12-08T20:25:41.995Z,29.77
2022-12-08T20:31:05.651Z,29.10
2022-12-08T20:34:37.235Z,29.75
2022-12-08T20:37:28.310Z,25.00
2022-12-08T20:39:58.576Z,24.50
2022-12-08T20:42:34.157Z,18.25
2022-12-08T20:45:01.389Z,20.95
2022-12-08T20:47:31.981Z,47.00
2022-12-08T20:50:01.034Z,57.33
2022-12-08T20:52:51.731Z,76.78
2022-12-08T20:55:21.777Z,72.70
2022-12-08T20:58:08.723Z,67.65
2022-12-08T21:00:38.430Z,76.15
2022-12-08T21:03:21.483Z,82.03
2022-12-08T21:08:47.471Z,76.75
2022-12-08T21:11:25.090Z,79.25
2022-12-08T21:13:52.754Z,68.88
2022-12-08T21:16:20.429Z,62.70
2022-12-08T21:18:48.938Z,67.32
2022-12-08T21:21:18.796Z,62.03
2022-12-08T21:23:47.012Z,61.60
2022-12-08T21:26:21.122Z,62.40
2022-12-08T21:28:48.539Z,55.15
2022-12-08T21:31:18.921Z,55.85
2022-12-08T21:33:48.208Z,55.47
2022-12-08T21:36:21.391Z,52.58
2022-12-08T21:38:50.344Z,50.63
2022-12-08T21:41:41.646Z,48.30
2022-12-08T21:44:12.292Z,45.13
2022-12-08T21:46:41.051Z,46.05
2022-12-08T21:49:09.347Z,41.95
2022-12-08T21:51:42.444Z,45.35
2022-12-08T21:54:18.241Z,46.15
2022-12-08T21:57:15.269Z,42.40
2022-12-08T21:59:42.530Z,34.75
2022-12-08T22:02:17.944Z,38.40
2022-12-08T22:04:49.822Z,34.67
2022-12-08T22:07:17.430Z,35.70
2022-12-08T22:09:47.396Z,33.58
2022-12-08T22:12:16.787Z,35.25
2022-12-08T22:14:44.186Z,30.80
2022-12-08T22:17:11.723Z,32.78
2022-12-08T22:19:39.169Z,32.72
2022-12-08T22:22:06.447Z,33.30
2022-12-08T22:24:33.745Z,31.65
2022-12-08T22:27:01.151Z,31.55
2022-12-08T22:29:28.542Z,32.55
2022-12-08T22:31:55.956Z,30.52
2022-12-08T22:34:23.411Z,31.05
2022-12-08T22:36:50.851Z,31.63
2022-12-08T22:39:18.123Z,31.50
2022-12-08T22:41:45.593Z,32.38
2022-12-08T22:44:13.037Z,32.97
2022-12-08T22:46:40.539Z,33.60
2022-12-08T22:49:07.898Z,32.97
2022-12-08T22:51:38.172Z,32.42
2022-12-08T22:54:06.019Z,31.27
2022-12-08T22:56:33.204Z,28.77
2022-12-08T22:59:00.513Z,26.80
2022-12-08T23:01:30.371Z,29.20
2022-12-08T23:03:58.361Z,27.83
2022-12-08T23:06:26.030Z,30.00
2022-12-08T23:08:53.515Z,28.38
2022-12-08T23:11:22.681Z,30.98
2022-12-08T23:13:49.823Z,29.27
2022-12-08T23:16:20.139Z,26.27
2022-12-08T23:18:47.398Z,27.63
2022-12-08T23:21:17.724Z,24.63
2022-12-08T23:23:45.106Z,24.67
2022-12-08T23:26:22.600Z,24.10
2022-12-08T23:28:50.101Z,18.58
2022-12-08T23:31:17.612Z,20.48
2022-12-08T23:33:44.974Z,25.27
2022-12-08T23:36:12.774Z,25.38
2022-12-08T23:38:41.046Z,25.10
2022-12-08T23:41:09.104Z,28.38
2022-12-08T23:43:36.544Z,29.23
2022-12-08T23:46:04.043Z,25.75
2022-12-08T23:48:34.579Z,24.60
2022-12-08T23:51:02.271Z,24.33
2022-12-08T23:53:31.651Z,23.25
2022-12-08T23:56:03.723Z,24.08
2022-12-08T23:58:31.362Z,23.52
